sensor_id;sensor_type;location;lat;lon;timestamp;P1;durP1;ratioP1;P2;durP2;ratioP2
142;SDS011;63667;49.046;8.468;2024-02-26T00:00:55;6.50;;;3.87;;
142;SDS011;63667;49.046;8.468;2024-02-26T00:03:23;5.90;;;3.73;;
142;SDS011;63667;49.046;8.468;2024-02-26T00:05:50;7.90;;;4.10;;
142;SDS011;63667;49.046;8.468;2024-02-26T00:08:17;4.80;;;3.80;;
142;SDS011;63667;49.046;8.468;2024-02-26T00:10:44;6.87;;;3.60;;
142;SDS011;63667;49.046;8.468;2024-02-26T00:13:12;4.60;;;3.40;;
142;SDS011;63667;49.046;8.468;2024-02-26T00:15:40;5.37;;;3.90;;
142;SDS011;63667;49.046;8.468;2024-02-26T00:18:07;10.90;;;3.93;;
142;SDS011;63667;49.046;8.468;2024-02-26T00:20:35;5.00;;;3.70;;
142;SDS011;63667;49.046;8.468;2024-02-26T00:23:02;5.50;;;3.80;;
142;SDS011;63667;49.046;8.468;2024-02-26T00:25:31;6.83;;;3.63;;
142;SDS011;63667;49.046;8.468;2024-02-26T00:27:59;4.80;;;3.60;;
142;SDS011;63667;49.046;8.468;2024-02-26T00:30:27;6.53;;;3.40;;
142;SDS011;63667;49.046;8.468;2024-02-26T00:32:54;5.97;;;3.57;;
142;SDS011;63667;49.046;8.468;2024-02-26T00:35:23;4.80;;;3.50;;
142;SDS011;63667;49.046;8.468;2024-02-26T00:37:51;5.67;;;3.83;;
142;SDS011;63667;49.046;8.468;2024-02-26T00:40:19;4.90;;;3.37;;
142;SDS011;63667;49.046;8.468;2024-02-26T00:42:46;6.07;;;4.07;;
142;SDS011;63667;49.046;8.468;2024-02-26T00:45:16;4.90;;;3.60;;
142;SDS011;63667;49.046;8.468;2024-02-26T00:47:43;4.73;;;3.40;;
142;SDS011;63667;49.046;8.468;2024-02-26T00:50:12;4.43;;;3.40;;
142;SDS011;63667;49.046;8.468;2024-02-26T00:52:40;4.27;;;3.57;;
142;SDS011;63667;49.046;8.468;2024-02-26T00:55:08;6.33;;;3.47;;
142;SDS011;63667;49.046;8.468;2024-02-26T00:57:36;4.83;;;3.17;;
142;SDS011;63667;49.046;8.468;2024-02-26T01:00:06;4.50;;;3.03;;
142;SDS011;63667;49.046;8.468;2024-02-26T01:02:35;3.63;;;2.90;;
142;SDS011;63667;49.046;8.468;2024-02-26T01:05:04;4.10;;;3.23;;
142;SDS011;63667;49.046;8.468;2024-02-26T01:07:33;5.17;;;3.43;;
142;SDS011;63667;49.046;8.468;2024-02-26T01:10:02;4.77;;;3.30;;
142;SDS011;63667;49.046;8.468;2024-02-26T01:12:29;4.20;;;3.47;;
142;SDS011;63667;49.046;8.468;2024-02-26T01:14:56;5.67;;;3.47;;
142;SDS011;63667;49.046;8.468;2024-02-26T01:17:23;5.83;;;3.23;;
142;SDS011;63667;49.046;8.468;2024-02-26T01:19:51;5.93;;;3.50;;
142;SDS011;63667;49.046;8.468;2024-02-26T01:22:19;8.17;;;3.60;;
142;SDS011;63667;49.046;8.468;2024-02-26T01:24:47;4.33;;;3.50;;
142;SDS011;63667;49.046;8.468;2024-02-26T01:27:15;4.17;;;3.30;;
142;SDS011;63667;49.046;8.468;2024-02-26T01:29:41;4.90;;;3.33;;
142;SDS011;63667;49.046;8.468;2024-02-26T01:32:09;3.47;;;2.93;;
142;SDS011;63667;49.046;8.468;2024-02-26T01:34:37;5.90;;;2.97;;
142;SDS011;63667;49.046;8.468;2024-02-26T01:37:04;3.57;;;3.10;;
142;SDS011;63667;49.046;8.468;2024-02-26T01:39:32;3.93;;;3.30;;
142;SDS011;63667;49.046;8.468;2024-02-26T01:42:01;4.80;;;3.10;;
142;SDS011;63667;49.046;8.468;2024-02-26T01:44:28;3.97;;;3.30;;
142;SDS011;63667;49.046;8.468;2024-02-26T01:46:56;4.57;;;3.17;;
142;SDS011;63667;49.046;8.468;2024-02-26T01:49:23;4.70;;;3.60;;
142;SDS011;63667;49.046;8.468;2024-02-26T01:51:51;5.00;;;3.53;;
142;SDS011;63667;49.046;8.468;2024-02-26T01:54:19;5.13;;;3.70;;
142;SDS011;63667;49.046;8.468;2024-02-26T01:56:47;5.47;;;3.50;;
142;SDS011;63667;49.046;8.468;2024-02-26T01:59:14;4.33;;;3.33;;
142;SDS011;63667;49.046;8.468;2024-02-26T02:01:44;5.43;;;3.63;;
142;SDS011;63667;49.046;8.468;2024-02-26T02:04:11;7.40;;;4.27;;
142;SDS011;63667;49.046;8.468;2024-02-26T02:06:40;4.50;;;3.30;;
142;SDS011;63667;49.046;8.468;2024-02-26T02:09:09;4.07;;;3.07;;
142;SDS011;63667;49.046;8.468;2024-02-26T02:11:36;4.57;;;3.67;;
142;SDS011;63667;49.046;8.468;2024-02-26T02:14:04;5.87;;;3.40;;
142;SDS011;63667;49.046;8.468;2024-02-26T02:16:33;4.20;;;3.10;;
142;SDS011;63667;49.046;8.468;2024-02-26T02:19:01;5.60;;;3.00;;
142;SDS011;63667;49.046;8.468;2024-02-26T02:21:27;4.17;;;3.00;;
142;SDS011;63667;49.046;8.468;2024-02-26T02:23:55;3.97;;;3.07;;
142;SDS011;63667;49.046;8.468;2024-02-26T02:26:23;3.80;;;3.47;;
142;SDS011;63667;49.046;8.468;2024-02-26T02:28:51;4.63;;;3.20;;
142;SDS011;63667;49.046;8.468;2024-02-26T02:31:19;5.90;;;3.47;;
142;SDS011;63667;49.046;8.468;2024-02-26T02:33:46;3.07;;;2.63;;
142;SDS011;63667;49.046;8.468;2024-02-26T02:36:14;3.37;;;2.50;;
142;SDS011;63667;49.046;8.468;2024-02-26T02:38:51;3.00;;;2.30;;
142;SDS011;63667;49.046;8.468;2024-02-26T02:41:19;3.33;;;2.10;;
142;SDS011;63667;49.046;8.468;2024-02-26T02:43:46;2.67;;;2.00;;
142;SDS011;63667;49.046;8.468;2024-02-26T02:46:15;2.10;;;2.00;;
142;SDS011;63667;49.046;8.468;2024-02-26T02:48:42;2.00;;;1.80;;
142;SDS011;63667;49.046;8.468;2024-02-26T02:51:09;3.17;;;1.90;;
142;SDS011;63667;49.046;8.468;2024-02-26T02:53:36;2.57;;;2.00;;
142;SDS011;63667;49.046;8.468;2024-02-26T02:56:04;2.60;;;2.17;;
142;SDS011;63667;49.046;8.468;2024-02-26T02:58:32;4.23;;;2.20;;
142;SDS011;63667;49.046;8.468;2024-02-26T03:01:00;2.73;;;2.00;;
142;SDS011;63667;49.046;8.468;2024-02-26T03:03:29;4.20;;;2.13;;
142;SDS011;63667;49.046;8.468;2024-02-26T03:05:56;4.00;;;2.20;;
142;SDS011;63667;49.046;8.468;2024-02-26T03:08:24;2.30;;;2.00;;
142;SDS011;63667;49.046;8.468;2024-02-26T03:10:51;2.87;;;2.10;;
142;SDS011;63667;49.046;8.468;2024-02-26T03:13:20;2.40;;;2.30;;
142;SDS011;63667;49.046;8.468;2024-02-26T03:15:48;5.23;;;2.47;;
142;SDS011;63667;49.046;8.468;2024-02-26T03:18:16;3.63;;;2.43;;
142;SDS011;63667;49.046;8.468;2024-02-26T03:20:43;5.77;;;2.60;;
142;SDS011;63667;49.046;8.468;2024-02-26T03:23:10;2.40;;;2.10;;
142;SDS011;63667;49.046;8.468;2024-02-26T03:25:41;3.07;;;2.20;;
142;SDS011;63667;49.046;8.468;2024-02-26T03:28:10;2.40;;;2.00;;
142;SDS011;63667;49.046;8.468;2024-02-26T03:30:37;2.60;;;2.20;;
142;SDS011;63667;49.046;8.468;2024-02-26T03:33:05;2.40;;;2.10;;
142;SDS011;63667;49.046;8.468;2024-02-26T03:35:33;3.57;;;2.37;;
142;SDS011;63667;49.046;8.468;2024-02-26T03:38:01;3.13;;;2.27;;
142;SDS011;63667;49.046;8.468;2024-02-26T03:40:29;3.63;;;2.00;;
142;SDS011;63667;49.046;8.468;2024-02-26T03:42:58;4.27;;;2.40;;
142;SDS011;63667;49.046;8.468;2024-02-26T03:45:25;3.67;;;2.37;;
142;SDS011;63667;49.046;8.468;2024-02-26T03:47:54;2.50;;;2.20;;
142;SDS011;63667;49.046;8.468;2024-02-26T03:50:21;2.60;;;2.40;;
142;SDS011;63667;49.046;8.468;2024-02-26T03:52:49;2.30;;;2.10;;
142;SDS011;63667;49.046;8.468;2024-02-26T03:55:17;3.70;;;2.43;;
142;SDS011;63667;49.046;8.468;2024-02-26T03:57:52;2.77;;;2.10;;
142;SDS011;63667;49.046;8.468;2024-02-26T04:00:37;3.90;;;2.70;;
142;SDS011;63667;49.046;8.468;2024-02-26T04:03:05;2.20;;;2.03;;
142;SDS011;63667;49.046;8.468;2024-02-26T04:05:32;2.50;;;2.37;;
142;SDS011;63667;49.046;8.468;2024-02-26T04:08:00;3.30;;;2.20;;
142;SDS011;63667;49.046;8.468;2024-02-26T04:10:29;2.67;;;2.20;;
142;SDS011;63667;49.046;8.468;2024-02-26T04:12:57;3.03;;;2.33;;
142;SDS011;63667;49.046;8.468;2024-02-26T04:15:24;3.60;;;2.27;;
142;SDS011;63667;49.046;8.468;2024-02-26T04:17:51;2.47;;;2.10;;
142;SDS011;63667;49.046;8.468;2024-02-26T04:20:18;2.33;;;2.10;;
142;SDS011;63667;49.046;8.468;2024-02-26T04:22:45;3.40;;;2.40;;
142;SDS011;63667;49.046;8.468;2024-02-26T04:25:12;2.57;;;2.27;;
142;SDS011;63667;49.046;8.468;2024-02-26T04:27:40;3.07;;;2.20;;
142;SDS011;63667;49.046;8.468;2024-02-26T04:30:08;2.40;;;2.20;;
142;SDS011;63667;49.046;8.468;2024-02-26T04:32:36;2.33;;;2.10;;
142;SDS011;63667;49.046;8.468;2024-02-26T04:35:04;3.73;;;2.37;;
142;SDS011;63667;49.046;8.468;2024-02-26T04:37:32;2.33;;;2.10;;
142;SDS011;63667;49.046;8.468;2024-02-26T04:40:00;3.77;;;2.53;;
142;SDS011;63667;49.046;8.468;2024-02-26T04:42:27;3.53;;;2.37;;
142;SDS011;63667;49.046;8.468;2024-02-26T04:44:55;2.40;;;2.30;;
142;SDS011;63667;49.046;8.468;2024-02-26T04:47:22;2.60;;;2.37;;
142;SDS011;63667;49.046;8.468;2024-02-26T04:49:50;6.43;;;2.20;;
142;SDS011;63667;49.046;8.468;2024-02-26T04:52:18;2.70;;;2.10;;
142;SDS011;63667;49.046;8.468;2024-02-26T04:54:45;2.37;;;2.10;;
142;SDS011;63667;49.046;8.468;2024-02-26T04:57:12;2.57;;;2.27;;
142;SDS011;63667;49.046;8.468;2024-02-26T04:59:40;2.70;;;2.40;;
142;SDS011;63667;49.046;8.468;2024-02-26T05:02:08;2.20;;;2.07;;
142;SDS011;63667;49.046;8.468;2024-02-26T05:04:36;3.23;;;2.30;;
142;SDS011;63667;49.046;8.468;2024-02-26T05:07:04;3.10;;;2.10;;
142;SDS011;63667;49.046;8.468;2024-02-26T05:09:40;2.50;;;2.10;;
142;SDS011;63667;49.046;8.468;2024-02-26T05:12:09;2.40;;;2.23;;
142;SDS011;63667;49.046;8.468;2024-02-26T05:14:36;3.03;;;2.23;;
142;SDS011;63667;49.046;8.468;2024-02-26T05:17:03;4.20;;;2.50;;
142;SDS011;63667;49.046;8.468;2024-02-26T05:19:31;3.20;;;2.30;;
142;SDS011;63667;49.046;8.468;2024-02-26T05:21:59;2.40;;;2.20;;
142;SDS011;63667;49.046;8.468;2024-02-26T05:24:26;2.70;;;2.20;;
142;SDS011;63667;49.046;8.468;2024-02-26T05:26:54;2.50;;;2.40;;
142;SDS011;63667;49.046;8.468;2024-02-26T05:29:22;2.93;;;2.20;;
142;SDS011;63667;49.046;8.468;2024-02-26T05:31:49;3.20;;;2.10;;
142;SDS011;63667;49.046;8.468;2024-02-26T05:34:16;6.63;;;2.40;;
142;SDS011;63667;49.046;8.468;2024-02-26T05:36:44;2.97;;;2.77;;
142;SDS011;63667;49.046;8.468;2024-02-26T05:39:11;4.00;;;2.57;;
142;SDS011;63667;49.046;8.468;2024-02-26T05:41:39;4.30;;;2.43;;
142;SDS011;63667;49.046;8.468;2024-02-26T05:44:08;4.67;;;2.30;;
142;SDS011;63667;49.046;8.468;2024-02-26T05:46:36;3.97;;;2.07;;
142;SDS011;63667;49.046;8.468;2024-02-26T05:49:03;5.30;;;2.33;;
142;SDS011;63667;49.046;8.468;2024-02-26T05:51:33;3.00;;;2.70;;
142;SDS011;63667;49.046;8.468;2024-02-26T05:54:00;2.30;;;2.00;;
142;SDS011;63667;49.046;8.468;2024-02-26T05:56:28;2.30;;;2.20;;
142;SDS011;63667;49.046;8.468;2024-02-26T05:58:56;2.30;;;2.10;;
142;SDS011;63667;49.046;8.468;2024-02-26T06:01:36;2.23;;;2.03;;
142;SDS011;63667;49.046;8.468;2024-02-26T06:04:03;4.43;;;2.13;;
142;SDS011;63667;49.046;8.468;2024-02-26T06:06:31;2.50;;;2.23;;
142;SDS011;63667;49.046;8.468;2024-02-26T06:08:59;2.10;;;1.90;;
142;SDS011;63667;49.046;8.468;2024-02-26T06:11:27;3.10;;;2.40;;
142;SDS011;63667;49.046;8.468;2024-02-26T06:13:55;2.70;;;2.30;;
142;SDS011;63667;49.046;8.468;2024-02-26T06:16:23;4.40;;;2.20;;
142;SDS011;63667;49.046;8.468;2024-02-26T06:18:51;3.47;;;1.97;;
142;SDS011;63667;49.046;8.468;2024-02-26T06:21:18;2.50;;;2.13;;
142;SDS011;63667;49.046;8.468;2024-02-26T06:23:46;3.43;;;1.97;;
142;SDS011;63667;49.046;8.468;2024-02-26T06:26:15;2.30;;;2.00;;
142;SDS011;63667;49.046;8.468;2024-02-26T06:28:43;3.53;;;2.00;;
142;SDS011;63667;49.046;8.468;2024-02-26T06:31:10;2.50;;;2.33;;
142;SDS011;63667;49.046;8.468;2024-02-26T06:33:39;3.70;;;2.13;;
142;SDS011;63667;49.046;8.468;2024-02-26T06:36:12;2.40;;;2.10;;
142;SDS011;63667;49.046;8.468;2024-02-26T06:38:42;3.33;;;2.50;;
142;SDS011;63667;49.046;8.468;2024-02-26T06:41:09;2.37;;;1.93;;
142;SDS011;63667;49.046;8.468;2024-02-26T06:43:37;3.80;;;2.67;;
142;SDS011;63667;49.046;8.468;2024-02-26T06:46:05;2.30;;;2.13;;
142;SDS011;63667;49.046;8.468;2024-02-26T06:48:32;2.77;;;2.03;;
142;SDS011;63667;49.046;8.468;2024-02-26T06:50:59;2.77;;;2.10;;
142;SDS011;63667;49.046;8.468;2024-02-26T06:53:28;5.60;;;2.30;;
142;SDS011;63667;49.046;8.468;2024-02-26T06:55:56;3.00;;;2.20;;
142;SDS011;63667;49.046;8.468;2024-02-26T06:58:24;2.73;;;2.40;;
142;SDS011;63667;49.046;8.468;2024-02-26T07:00:53;2.60;;;2.40;;
142;SDS011;63667;49.046;8.468;2024-02-26T07:03:19;2.70;;;2.10;;
142;SDS011;63667;49.046;8.468;2024-02-26T07:05:48;5.17;;;3.30;;
142;SDS011;63667;49.046;8.468;2024-02-26T07:08:17;2.93;;;2.73;;
142;SDS011;63667;49.046;8.468;2024-02-26T07:10:45;5.60;;;3.30;;
142;SDS011;63667;49.046;8.468;2024-02-26T07:13:13;6.17;;;3.70;;
142;SDS011;63667;49.046;8.468;2024-02-26T07:15:41;3.50;;;3.20;;
142;SDS011;63667;49.046;8.468;2024-02-26T07:18:10;4.53;;;3.30;;
142;SDS011;63667;49.046;8.468;2024-02-26T07:20:37;5.87;;;3.13;;
142;SDS011;63667;49.046;8.468;2024-02-26T07:23:05;4.60;;;2.80;;
142;SDS011;63667;49.046;8.468;2024-02-26T07:25:33;6.90;;;2.80;;
142;SDS011;63667;49.046;8.468;2024-02-26T07:28:01;4.40;;;3.10;;
142;SDS011;63667;49.046;8.468;2024-02-26T07:30:29;3.77;;;2.90;;
142;SDS011;63667;49.046;8.468;2024-02-26T07:32:58;3.70;;;2.40;;
142;SDS011;63667;49.046;8.468;2024-02-26T07:35:25;3.70;;;2.63;;
142;SDS011;63667;49.046;8.468;2024-02-26T07:37:54;3.33;;;2.30;;
142;SDS011;63667;49.046;8.468;2024-02-26T07:40:21;4.10;;;2.80;;
142;SDS011;63667;49.046;8.468;2024-02-26T07:42:48;4.63;;;2.70;;
142;SDS011;63667;49.046;8.468;2024-02-26T07:45:17;6.43;;;2.83;;
142;SDS011;63667;49.046;8.468;2024-02-26T07:47:46;3.63;;;3.50;;
142;SDS011;63667;49.046;8.468;2024-02-26T07:50:14;3.33;;;2.83;;
142;SDS011;63667;49.046;8.468;2024-02-26T07:52:43;3.80;;;2.90;;
142;SDS011;63667;49.046;8.468;2024-02-26T07:55:10;4.30;;;3.20;;
142;SDS011;63667;49.046;8.468;2024-02-26T07:57:42;4.10;;;2.70;;
142;SDS011;63667;49.046;8.468;2024-02-26T08:00:10;4.10;;;2.90;;
142;SDS011;63667;49.046;8.468;2024-02-26T08:02:37;4.10;;;3.50;;
142;SDS011;63667;49.046;8.468;2024-02-26T08:05:10;5.00;;;3.30;;
142;SDS011;63667;49.046;8.468;2024-02-26T08:07:37;3.47;;;3.07;;
142;SDS011;63667;49.046;8.468;2024-02-26T08:10:05;5.10;;;3.50;;
142;SDS011;63667;49.046;8.468;2024-02-26T08:12:33;4.33;;;3.30;;
142;SDS011;63667;49.046;8.468;2024-02-26T08:15:01;5.43;;;3.70;;
142;SDS011;63667;49.046;8.468;2024-02-26T08:17:30;7.67;;;3.43;;
142;SDS011;63667;49.046;8.468;2024-02-26T08:19:59;4.43;;;3.60;;
142;SDS011;63667;49.046;8.468;2024-02-26T08:22:26;4.80;;;3.50;;
142;SDS011;63667;49.046;8.468;2024-02-26T08:24:53;4.90;;;3.40;;
142;SDS011;63667;49.046;8.468;2024-02-26T08:27:21;4.97;;;3.30;;
142;SDS011;63667;49.046;8.468;2024-02-26T08:29:48;10.13;;;3.83;;
142;SDS011;63667;49.046;8.468;2024-02-26T08:32:16;6.97;;;3.53;;
142;SDS011;63667;49.046;8.468;2024-02-26T08:34:44;4.43;;;3.40;;
142;SDS011;63667;49.046;8.468;2024-02-26T08:37:12;3.53;;;3.30;;
142;SDS011;63667;49.046;8.468;2024-02-26T08:39:40;3.53;;;3.20;;
142;SDS011;63667;49.046;8.468;2024-02-26T08:42:08;6.90;;;3.63;;
142;SDS011;63667;49.046;8.468;2024-02-26T08:44:35;3.77;;;3.10;;
142;SDS011;63667;49.046;8.468;2024-02-26T08:47:03;2.90;;;2.73;;
142;SDS011;63667;49.046;8.468;2024-02-26T08:49:31;3.40;;;3.00;;
142;SDS011;63667;49.046;8.468;2024-02-26T08:51:59;5.53;;;3.10;;
142;SDS011;63667;49.046;8.468;2024-02-26T08:54:26;3.70;;;2.73;;
142;SDS011;63667;49.046;8.468;2024-02-26T08:56:57;3.70;;;2.87;;
142;SDS011;63667;49.046;8.468;2024-02-26T08:59:24;4.37;;;2.90;;
142;SDS011;63667;49.046;8.468;2024-02-26T09:01:52;3.33;;;2.93;;
142;SDS011;63667;49.046;8.468;2024-02-26T09:04:20;14.73;;;2.57;;
142;SDS011;63667;49.046;8.468;2024-02-26T09:06:47;3.43;;;2.60;;
142;SDS011;63667;49.046;8.468;2024-02-26T09:09:15;2.83;;;2.63;;
142;SDS011;63667;49.046;8.468;2024-02-26T09:11:43;3.30;;;2.70;;
142;SDS011;63667;49.046;8.468;2024-02-26T09:14:10;4.93;;;2.73;;
142;SDS011;63667;49.046;8.468;2024-02-26T09:16:38;2.93;;;2.33;;
142;SDS011;63667;49.046;8.468;2024-02-26T09:19:14;3.30;;;2.57;;
142;SDS011;63667;49.046;8.468;2024-02-26T09:21:44;3.97;;;2.90;;
142;SDS011;63667;49.046;8.468;2024-02-26T09:24:12;4.73;;;2.80;;
142;SDS011;63667;49.046;8.468;2024-02-26T09:26:40;3.70;;;2.80;;
142;SDS011;63667;49.046;8.468;2024-02-26T09:29:08;2.93;;;2.63;;
142;SDS011;63667;49.046;8.468;2024-02-26T09:31:36;4.17;;;2.83;;
142;SDS011;63667;49.046;8.468;2024-02-26T09:34:03;3.83;;;2.77;;
142;SDS011;63667;49.046;8.468;2024-02-26T09:36:31;5.07;;;2.60;;
142;SDS011;63667;49.046;8.468;2024-02-26T09:38:58;2.90;;;2.53;;
142;SDS011;63667;49.046;8.468;2024-02-26T09:41:27;3.63;;;2.90;;
142;SDS011;63667;49.046;8.468;2024-02-26T09:43:58;3.33;;;2.67;;
142;SDS011;63667;49.046;8.468;2024-02-26T09:46:26;4.07;;;2.60;;
142;SDS011;63667;49.046;8.468;2024-02-26T09:48:54;4.40;;;3.23;;
142;SDS011;63667;49.046;8.468;2024-02-26T09:51:24;3.00;;;2.37;;
142;SDS011;63667;49.046;8.468;2024-02-26T09:53:52;2.80;;;2.53;;
142;SDS011;63667;49.046;8.468;2024-02-26T09:56:19;3.53;;;2.80;;
142;SDS011;63667;49.046;8.468;2024-02-26T09:58:48;4.73;;;2.97;;
142;SDS011;63667;49.046;8.468;2024-02-26T10:01:19;4.57;;;3.30;;
142;SDS011;63667;49.046;8.468;2024-02-26T10:03:48;4.23;;;3.37;;
142;SDS011;63667;49.046;8.468;2024-02-26T10:06:18;4.47;;;3.37;;
142;SDS011;63667;49.046;8.468;2024-02-26T10:08:46;6.63;;;3.10;;
142;SDS011;63667;49.046;8.468;2024-02-26T10:11:14;7.30;;;3.83;;
142;SDS011;63667;49.046;8.468;2024-02-26T10:13:42;5.37;;;3.60;;
142;SDS011;63667;49.046;8.468;2024-02-26T10:16:09;5.03;;;3.30;;
142;SDS011;63667;49.046;8.468;2024-02-26T10:18:46;3.33;;;3.17;;
142;SDS011;63667;49.046;8.468;2024-02-26T10:21:13;2.83;;;2.50;;
142;SDS011;63667;49.046;8.468;2024-02-26T10:23:41;5.17;;;3.03;;
142;SDS011;63667;49.046;8.468;2024-02-26T10:26:10;3.50;;;2.90;;
142;SDS011;63667;49.046;8.468;2024-02-26T10:28:38;3.00;;;2.80;;
142;SDS011;63667;49.046;8.468;2024-02-26T10:31:07;4.67;;;2.90;;
142;SDS011;63667;49.046;8.468;2024-02-26T10:33:38;3.40;;;2.90;;
142;SDS011;63667;49.046;8.468;2024-02-26T10:36:05;11.50;;;3.30;;
142;SDS011;63667;49.046;8.468;2024-02-26T10:38:34;5.10;;;3.00;;
142;SDS011;63667;49.046;8.468;2024-02-26T10:41:12;3.60;;;3.03;;
142;SDS011;63667;49.046;8.468;2024-02-26T10:43:59;5.40;;;3.03;;
142;SDS011;63667;49.046;8.468;2024-02-26T10:46:27;5.67;;;3.23;;
142;SDS011;63667;49.046;8.468;2024-02-26T10:48:55;3.27;;;2.87;;
142;SDS011;63667;49.046;8.468;2024-02-26T10:51:27;10.70;;;3.20;;
142;SDS011;63667;49.046;8.468;2024-02-26T10:53:55;4.53;;;2.70;;
142;SDS011;63667;49.046;8.468;2024-02-26T10:56:24;4.17;;;3.13;;
142;SDS011;63667;49.046;8.468;2024-02-26T10:58:54;3.40;;;2.77;;
142;SDS011;63667;49.046;8.468;2024-02-26T11:01:21;4.20;;;3.23;;
142;SDS011;63667;49.046;8.468;2024-02-26T11:03:51;4.83;;;2.80;;
142;SDS011;63667;49.046;8.468;2024-02-26T11:06:19;3.53;;;2.70;;
142;SDS011;63667;49.046;8.468;2024-02-26T11:08:48;4.20;;;3.20;;
142;SDS011;63667;49.046;8.468;2024-02-26T11:11:18;4.10;;;2.87;;
142;SDS011;63667;49.046;8.468;2024-02-26T11:14:02;4.23;;;2.70;;
142;SDS011;63667;49.046;8.468;2024-02-26T11:16:30;4.20;;;2.50;;
142;SDS011;63667;49.046;8.468;2024-02-26T11:18:58;2.70;;;2.47;;
142;SDS011;63667;49.046;8.468;2024-02-26T11:21:27;3.53;;;2.80;;
142;SDS011;63667;49.046;8.468;2024-02-26T11:24:05;5.40;;;2.40;;
142;SDS011;63667;49.046;8.468;2024-02-26T11:26:33;2.53;;;2.40;;
142;SDS011;63667;49.046;8.468;2024-02-26T11:29:02;3.60;;;2.33;;
142;SDS011;63667;49.046;8.468;2024-02-26T11:31:30;4.17;;;2.60;;
142;SDS011;63667;49.046;8.468;2024-02-26T11:33:58;3.80;;;2.40;;
142;SDS011;63667;49.046;8.468;2024-02-26T11:36:25;4.90;;;2.30;;
142;SDS011;63667;49.046;8.468;2024-02-26T11:38:53;2.83;;;2.63;;
142;SDS011;63667;49.046;8.468;2024-02-26T11:41:21;2.80;;;2.17;;
142;SDS011;63667;49.046;8.468;2024-02-26T11:46:33;3.57;;;2.03;;
142;SDS011;63667;49.046;8.468;2024-02-26T11:51:52;2.87;;;1.83;;
142;SDS011;63667;49.046;8.468;2024-02-26T11:57:37;2.07;;;1.87;;
142;SDS011;63667;49.046;8.468;2024-02-26T12:02:41;3.13;;;2.03;;
142;SDS011;63667;49.046;8.468;2024-02-26T12:05:15;2.77;;;2.30;;
142;SDS011;63667;49.046;8.468;2024-02-26T12:07:46;2.47;;;2.00;;
142;SDS011;63667;49.046;8.468;2024-02-26T12:10:30;2.77;;;2.00;;
142;SDS011;63667;49.046;8.468;2024-02-26T12:13:08;3.13;;;2.30;;
142;SDS011;63667;49.046;8.468;2024-02-26T12:15:41;6.63;;;2.43;;
142;SDS011;63667;49.046;8.468;2024-02-26T12:18:10;2.20;;;1.90;;
142;SDS011;63667;49.046;8.468;2024-02-26T12:20:37;2.10;;;1.97;;
142;SDS011;63667;49.046;8.468;2024-02-26T12:23:05;4.00;;;2.40;;
142;SDS011;63667;49.046;8.468;2024-02-26T12:25:32;2.43;;;2.20;;
142;SDS011;63667;49.046;8.468;2024-02-26T12:27:59;2.60;;;1.90;;
142;SDS011;63667;49.046;8.468;2024-02-26T12:30:26;2.63;;;1.90;;
142;SDS011;63667;49.046;8.468;2024-02-26T12:32:55;2.20;;;1.90;;
142;SDS011;63667;49.046;8.468;2024-02-26T12:35:23;3.20;;;1.80;;
142;SDS011;63667;49.046;8.468;2024-02-26T12:37:51;6.13;;;2.00;;
142;SDS011;63667;49.046;8.468;2024-02-26T12:40:20;2.97;;;2.07;;
142;SDS011;63667;49.046;8.468;2024-02-26T12:42:47;4.37;;;2.00;;
142;SDS011;63667;49.046;8.468;2024-02-26T12:45:15;2.10;;;1.80;;
142;SDS011;63667;49.046;8.468;2024-02-26T12:47:42;3.13;;;1.70;;
142;SDS011;63667;49.046;8.468;2024-02-26T12:50:11;2.67;;;1.60;;
142;SDS011;63667;49.046;8.468;2024-02-26T12:52:40;2.00;;;1.57;;
142;SDS011;63667;49.046;8.468;2024-02-26T12:55:07;1.90;;;1.50;;
142;SDS011;63667;49.046;8.468;2024-02-26T12:57:35;2.20;;;1.63;;
142;SDS011;63667;49.046;8.468;2024-02-26T13:00:04;4.50;;;1.80;;
142;SDS011;63667;49.046;8.468;2024-02-26T13:02:35;1.90;;;1.50;;
142;SDS011;63667;49.046;8.468;2024-02-26T13:05:03;2.53;;;1.53;;
142;SDS011;63667;49.046;8.468;2024-02-26T13:07:32;1.90;;;1.50;;
142;SDS011;63667;49.046;8.468;2024-02-26T13:10:01;2.10;;;1.40;;
142;SDS011;63667;49.046;8.468;2024-02-26T13:12:28;3.67;;;1.90;;
142;SDS011;63667;49.046;8.468;2024-02-26T13:14:59;2.20;;;1.90;;
142;SDS011;63667;49.046;8.468;2024-02-26T13:17:26;2.87;;;2.33;;
142;SDS011;63667;49.046;8.468;2024-02-26T13:19:55;3.10;;;2.30;;
142;SDS011;63667;49.046;8.468;2024-02-26T13:22:22;2.60;;;2.40;;
142;SDS011;63667;49.046;8.468;2024-02-26T13:24:56;4.27;;;2.70;;
142;SDS011;63667;49.046;8.468;2024-02-26T13:27:24;2.97;;;2.00;;
142;SDS011;63667;49.046;8.468;2024-02-26T13:30:10;2.50;;;2.30;;
142;SDS011;63667;49.046;8.468;2024-02-26T13:32:39;2.40;;;2.20;;
142;SDS011;63667;49.046;8.468;2024-02-26T13:35:09;2.57;;;2.03;;
142;SDS011;63667;49.046;8.468;2024-02-26T13:37:39;2.47;;;2.03;;
142;SDS011;63667;49.046;8.468;2024-02-26T13:40:09;2.50;;;2.20;;
142;SDS011;63667;49.046;8.468;2024-02-26T13:42:37;3.33;;;2.20;;
142;SDS011;63667;49.046;8.468;2024-02-26T13:45:06;2.63;;;2.10;;
142;SDS011;63667;49.046;8.468;2024-02-26T13:47:34;5.90;;;2.13;;
142;SDS011;63667;49.046;8.468;2024-02-26T13:50:02;2.87;;;2.00;;
142;SDS011;63667;49.046;8.468;2024-02-26T13:52:31;2.50;;;2.10;;
142;SDS011;63667;49.046;8.468;2024-02-26T13:55:00;5.80;;;1.90;;
142;SDS011;63667;49.046;8.468;2024-02-26T13:57:28;2.50;;;2.03;;
142;SDS011;63667;49.046;8.468;2024-02-26T13:59:56;6.30;;;2.30;;
142;SDS011;63667;49.046;8.468;2024-02-26T14:02:24;3.50;;;2.07;;
142;SDS011;63667;49.046;8.468;2024-02-26T14:04:51;3.30;;;2.07;;
142;SDS011;63667;49.046;8.468;2024-02-26T14:07:20;2.77;;;2.00;;
142;SDS011;63667;49.046;8.468;2024-02-26T14:09:47;2.50;;;1.80;;
142;SDS011;63667;49.046;8.468;2024-02-26T14:12:15;2.00;;;1.80;;
142;SDS011;63667;49.046;8.468;2024-02-26T14:14:44;2.50;;;1.93;;
142;SDS011;63667;49.046;8.468;2024-02-26T14:17:14;2.43;;;2.10;;
142;SDS011;63667;49.046;8.468;2024-02-26T14:19:42;2.30;;;2.10;;
142;SDS011;63667;49.046;8.468;2024-02-26T14:22:11;2.77;;;2.10;;
142;SDS011;63667;49.046;8.468;2024-02-26T14:24:39;2.20;;;1.93;;
142;SDS011;63667;49.046;8.468;2024-02-26T14:27:07;2.87;;;1.90;;
142;SDS011;63667;49.046;8.468;2024-02-26T14:29:35;6.47;;;2.10;;
142;SDS011;63667;49.046;8.468;2024-02-26T14:32:03;2.30;;;2.00;;
142;SDS011;63667;49.046;8.468;2024-02-26T14:34:32;2.50;;;2.07;;
142;SDS011;63667;49.046;8.468;2024-02-26T14:36:59;2.53;;;2.03;;
142;SDS011;63667;49.046;8.468;2024-02-26T14:39:28;2.47;;;2.20;;
142;SDS011;63667;49.046;8.468;2024-02-26T14:41:57;2.50;;;2.20;;
142;SDS011;63667;49.046;8.468;2024-02-26T14:44:24;3.60;;;2.30;;
142;SDS011;63667;49.046;8.468;2024-02-26T14:46:51;3.17;;;2.37;;
142;SDS011;63667;49.046;8.468;2024-02-26T14:49:19;2.30;;;2.03;;
142;SDS011;63667;49.046;8.468;2024-02-26T14:51:45;2.90;;;2.50;;
142;SDS011;63667;49.046;8.468;2024-02-26T14:54:12;2.50;;;2.20;;
142;SDS011;63667;49.046;8.468;2024-02-26T14:56:39;3.10;;;2.37;;
142;SDS011;63667;49.046;8.468;2024-02-26T14:59:06;2.70;;;2.37;;
142;SDS011;63667;49.046;8.468;2024-02-26T15:01:35;2.50;;;2.27;;
142;SDS011;63667;49.046;8.468;2024-02-26T15:04:04;3.50;;;2.23;;
142;SDS011;63667;49.046;8.468;2024-02-26T15:06:31;2.70;;;2.30;;
142;SDS011;63667;49.046;8.468;2024-02-26T15:09:00;4.70;;;2.10;;
142;SDS011;63667;49.046;8.468;2024-02-26T15:11:29;2.77;;;2.23;;
142;SDS011;63667;49.046;8.468;2024-02-26T15:13:56;2.40;;;2.07;;
142;SDS011;63667;49.046;8.468;2024-02-26T15:16:23;3.60;;;2.20;;
142;SDS011;63667;49.046;8.468;2024-02-26T15:18:52;2.30;;;1.80;;
142;SDS011;63667;49.046;8.468;2024-02-26T15:21:19;2.50;;;2.00;;
142;SDS011;63667;49.046;8.468;2024-02-26T15:23:48;2.37;;;2.17;;
142;SDS011;63667;49.046;8.468;2024-02-26T15:26:17;2.30;;;1.97;;
142;SDS011;63667;49.046;8.468;2024-02-26T15:28:44;2.53;;;2.03;;
142;SDS011;63667;49.046;8.468;2024-02-26T15:31:12;2.63;;;2.30;;
142;SDS011;63667;49.046;8.468;2024-02-26T15:33:39;3.00;;;2.30;;